Time;durP1;ratioP1;P1;durP2;ratioP2;P2;SDS_P1;SDS_P2;PMS_P1;PMS_P2;Temp;Humidity;BMP_temperature;BMP_pressure;BME280_temperature;BME280_humidity;BME280_pressure;Samples;Min_cycle;Max_cycle;Signal;HPM_P1;HPM_P2
2022/10/19 00:02:16;;;;;;;;;0.25;0.25;;;;;11.47;72.31;102968.31;4950768;28;9463;-68
2022/10/19 00:04:43;;;;;;;;;1.00;1.00;;;;;11.46;72.48;102966.56;4951666;29;9656;-67
2022/10/19 00:07:09;;;;;;;;;1.25;1.00;;;;;11.43;72.69;102961.50;4951100;28;9738;-68
2022/10/19 00:09:36;;;;;;;;;0.75;0.75;;;;;11.43;72.87;102967.75;4951728;28;9620;-66
2022/10/19 00:12:02;;;;;;;;;2.00;2.00;;;;;11.40;72.45;102962.63;4951809;28;9672;-68
2022/10/19 00:14:28;;;;;;;;;1.25;1.00;;;;;11.37;72.73;102962.91;4951761;29;10438;-66
2022/10/19 00:16:56;;;;;;;;;2.00;1.00;;;;;11.33;72.79;102956.97;4951452;28;9787;-67
2022/10/19 00:19:25;;;;;;;;;0.25;0.25;;;;;11.31;72.57;102958.13;4954442;28;9804;-67
2022/10/19 00:21:52;;;;;;;;;1.00;1.00;;;;;11.28;72.90;102961.13;4954656;28;9641;-68
2022/10/19 00:24:19;;;;;;;;;0.50;0.50;;;;;11.25;72.84;102954.16;4947498;28;9758;-68
2022/10/19 00:26:46;;;;;;;;;0.00;0.00;;;;;11.23;72.96;102952.63;4955728;28;9695;-68
2022/10/19 00:29:13;;;;;;;;;2.00;2.00;;;;;11.23;73.18;102952.63;4955606;28;9640;-68
2022/10/19 00:31:40;;;;;;;;;3.00;2.00;;;;;11.18;73.29;102941.41;4954374;28;9635;-67
2022/10/19 00:34:07;;;;;;;;;2.00;1.50;;;;;11.16;72.96;102940.72;4953886;28;9779;-66
2022/10/19 00:36:37;;;;;;;;;0.25;0.25;;;;;11.13;73.03;102941.84;4954729;28;9782;-66
2022/10/19 00:39:05;;;;;;;;;1.75;1.75;;;;;11.11;72.91;102943.88;4955430;28;9624;-67
2022/10/19 00:41:35;;;;;;;;;2.50;1.00;;;;;11.06;72.99;102941.63;4954271;28;9759;-66
2022/10/19 00:44:26;;;;;;;;;1.00;1.00;;;;;11.05;73.08;102941.75;4954979;28;9647;-66
2022/10/19 00:46:52;;;;;;;;;2.00;1.75;;;;;11.01;73.44;102941.19;4937771;28;9727;-67
2022/10/19 00:49:25;;;;;;;;;2.25;1.00;;;;;10.99;73.38;102943.19;4953783;28;9620;-68
2022/10/19 00:51:55;;;;;;;;;1.00;1.00;;;;;10.99;73.06;102945.88;4955426;28;9779;-68
2022/10/19 00:54:22;;;;;;;;;1.00;1.00;;;;;10.98;73.37;102952.28;4955069;28;9839;-68
2022/10/19 00:56:52;;;;;;;;;1.00;1.00;;;;;10.96;73.30;102940.78;4954647;28;9842;-68
2022/10/19 00:59:20;;;;;;;;;1.00;1.00;;;;;10.94;73.55;102944.59;4955300;28;9791;-67
2022/10/19 01:01:48;;;;;;;;;1.50;1.50;;;;;10.91;73.03;102940.38;4954697;28;9877;-66
2022/10/19 01:04:14;;;;;;;;;2.00;2.00;;;;;10.85;73.00;102941.78;4937905;28;9695;-68
2022/10/19 01:06:41;;;;;;;;;2.00;2.00;;;;;10.83;73.04;102938.38;4954733;28;9879;-68
2022/10/19 01:09:07;;;;;;;;;0.00;0.00;;;;;10.79;72.81;102931.59;4954378;28;9929;-68
2022/10/19 01:12:05;;;;;;;;;2.50;2.00;;;;;10.78;73.12;102937.97;4953357;28;9876;-65
2022/10/19 01:14:54;;;;;;;;;2.00;1.00;;;;;10.75;72.94;102938.25;4947161;28;9885;-67
2022/10/19 01:17:39;;;;;;;;;1.25;1.25;;;;;10.74;72.99;102939.25;4953204;28;9754;-66
2022/10/19 01:20:30;;;;;;;;;4.00;2.00;;;;;10.68;73.04;102937.13;4949123;28;10021;-66
2022/10/19 01:24:03;;;;;;;;;2.00;1.25;;;;;10.63;73.01;102931.34;4954561;28;10187;-68
2022/10/19 01:26:52;;;;;;;;;1.25;1.25;;;;;10.58;73.53;102934.47;4968402;28;10051;-68
2022/10/19 01:29:43;;;;;;;;;4.25;2.00;;;;;10.59;73.30;102938.84;4969095;28;9997;-67
2022/10/19 01:32:20;;;;;;;;;1.25;1.25;;;;;10.58;73.30;102942.53;4957513;28;10044;-67
2022/10/19 01:34:56;;;;;;;;;2.00;1.00;;;;;10.56;73.48;102928.34;4954208;28;9942;-65
2022/10/19 01:37:32;;;;;;;;;4.00;2.00;;;;;10.53;73.31;102919.69;4954421;28;9757;-67
2022/10/19 01:40:11;;;;;;;;;3.00;3.00;;;;;10.55;73.02;102926.66;4951966;28;10047;-67
2022/10/19 01:42:52;;;;;;;;;4.00;2.00;;;;;10.55;73.22;102920.44;4949704;28;9942;-67
2022/10/19 01:45:39;;;;;;;;;1.00;1.00;;;;;10.52;73.13;102924.25;4952964;28;9940;-67
2022/10/19 01:48:21;;;;;;;;;2.75;2.00;;;;;10.49;73.01;102929.06;4953357;28;9858;-68
2022/10/19 01:51:00;;;;;;;;;2.75;2.75;;;;;10.46;73.71;102927.53;4953870;28;10732;-68
2022/10/19 01:53:31;;;;;;;;;2.00;2.00;;;;;10.46;73.81;102922.13;4968972;28;9963;-65
2022/10/19 01:56:02;;;;;;;;;3.25;2.00;;;;;10.50;73.95;102920.84;4952666;28;10111;-67
2022/10/19 01:58:34;;;;;;;;;3.00;2.00;;;;;10.47;73.07;102926.53;4951437;28;10164;-67
2022/10/19 02:01:05;;;;;;;;;1.25;1.25;;;;;10.46;73.11;102923.97;4950497;28;9957;-68
2022/10/19 02:03:33;;;;;;;;;5.25;5.25;;;;;10.44;73.84;102921.41;4953838;28;10887;-67
2022/10/19 02:06:04;;;;;;;;;5.00;2.00;;;;;10.45;73.76;102919.56;4950351;28;10077;-66
2022/10/19 02:08:39;;;;;;;;;1.75;1.75;;;;;10.45;73.83;102922.25;4940063;28;10452;-64
2022/10/19 02:11:05;;;;;;;;;3.50;1.50;;;;;10.45;73.51;102923.13;4953626;28;10027;-66
2022/10/19 02:13:32;;;;;;;;;2.25;2.25;;;;;10.45;74.29;102911.50;4952756;28;9859;-70
2022/10/19 02:16:05;;;;;;;;;2.00;2.00;;;;;10.49;74.00;102907.53;4953445;28;9947;-65
2022/10/19 02:18:41;;;;;;;;;2.00;2.00;;;;;10.50;73.87;102914.63;4953624;28;10044;-67
2022/10/19 02:21:08;;;;;;;;;1.75;1.75;;;;;10.49;73.57;102907.53;4952905;28;10031;-68
2022/10/19 02:23:35;;;;;;;;;6.00;2.00;;;;;10.48;74.29;102905.81;4949996;28;10033;-70
2022/10/19 02:26:02;;;;;;;;;1.00;1.00;;;;;10.45;73.93;102904.28;4950438;28;10049;-68
2022/10/19 02:28:29;;;;;;;;;2.50;2.00;;;;;10.40;73.70;102901.16;4950866;28;10036;-67
2022/10/19 02:30:57;;;;;;;;;3.50;3.50;;;;;10.36;74.05;102900.59;4953145;28;10106;-68
2022/10/19 02:33:23;;;;;;;;;2.00;2.00;;;;;10.34;73.89;102904.44;4953115;28;10719;-66
2022/10/19 02:35:50;;;;;;;;;2.00;1.25;;;;;10.33;74.14;102908.09;4953045;28;9921;-65
2022/10/19 02:38:20;;;;;;;;;2.00;2.00;;;;;10.32;73.89;102909.09;4953416;28;9952;-66
2022/10/19 02:40:55;;;;;;;;;1.00;1.00;;;;;10.30;73.56;102905.72;4967827;28;10037;-68
2022/10/19 02:43:25;;;;;;;;;3.00;3.00;;;;;10.28;73.39;102904.97;4949659;28;9897;-66
2022/10/19 02:46:21;;;;;;;;;1.00;1.00;;;;;10.25;73.94;102898.06;4952624;28;9986;-66
2022/10/19 02:48:50;;;;;;;;;5.25;2.00;;;;;10.22;73.73;102889.38;4934801;28;10563;-66
2022/10/19 02:51:29;;;;;;;;;1.00;1.00;;;;;10.19;73.65;102898.56;4952029;28;9942;-66
2022/10/19 02:53:55;;;;;;;;;2.00;2.00;;;;;10.16;73.66;102893.47;4952990;28;10659;-67
2022/10/19 02:56:24;;;;;;;;;2.00;1.75;;;;;10.15;73.78;102891.78;4952647;28;9937;-67
2022/10/19 02:58:50;;;;;;;;;2.00;1.00;;;;;10.12;73.80;102881.28;4950711;28;9836;-64
2022/10/19 03:01:17;;;;;;;;;5.00;3.25;;;;;10.09;73.13;102884.28;4952583;28;10277;-66
2022/10/19 03:03:43;;;;;;;;;1.75;1.75;;;;;10.07;73.77;102895.16;4952316;28;10150;-66
2022/10/19 03:06:10;;;;;;;;;1.25;1.25;;;;;10.07;73.43;102892.47;4952350;28;10151;-66
2022/10/19 03:08:36;;;;;;;;;2.00;2.00;;;;;10.05;73.72;102899.00;4948711;28;10093;-66
2022/10/19 03:11:03;;;;;;;;;2.00;2.00;;;;;10.02;73.47;102894.75;4952690;28;10099;-65
2022/10/19 03:13:29;;;;;;;;;4.00;2.00;;;;;9.99;73.58;102900.41;4952213;28;10179;-68
2022/10/19 03:15:56;;;;;;;;;1.75;1.75;;;;;9.99;73.25;102902.25;4944365;29;10110;-66
2022/10/19 03:18:22;;;;;;;;;4.00;1.00;;;;;9.97;73.69;102891.63;4944596;28;10045;-68
2022/10/19 03:20:48;;;;;;;;;3.50;1.75;;;;;9.96;73.58;102878.31;4952411;28;10018;-64
2022/10/19 03:23:15;;;;;;;;;1.75;1.75;;;;;9.93;73.43;102881.31;4949355;28;10270;-65
2022/10/19 03:25:41;;;;;;;;;2.00;2.00;;;;;9.87;73.23;102880.84;4952085;28;10190;-68
2022/10/19 03:28:07;;;;;;;;;2.00;2.00;;;;;9.88;73.21;102881.69;4950031;28;10118;-67
2022/10/19 03:30:34;;;;;;;;;1.75;1.00;;;;;9.86;73.12;102881.00;4936047;29;10019;-67
2022/10/19 03:33:00;;;;;;;;;1.00;0.75;;;;;9.84;73.63;102883.84;4933262;29;10189;-67
2022/10/19 03:35:27;;;;;;;;;1.00;1.00;;;;;9.83;73.45;102879.41;4945043;28;10030;-66
2022/10/19 03:37:53;;;;;;;;;2.00;2.00;;;;;9.84;73.81;102875.78;4950223;28;10212;-67
2022/10/19 03:40:19;;;;;;;;;2.00;2.00;;;;;9.84;73.87;102874.88;4951680;28;10167;-65
2022/10/19 03:42:46;;;;;;;;;1.00;1.00;;;;;9.83;73.62;102878.56;4952106;28;9972;-66
2022/10/19 03:45:12;;;;;;;;;1.00;1.00;;;;;9.82;73.43;102874.19;4952092;28;10046;-68
2022/10/19 03:47:38;;;;;;;;;1.25;1.25;;;;;9.80;74.18;102878.84;4952481;28;9950;-66
2022/10/19 03:50:05;;;;;;;;;1.00;1.00;;;;;9.80;73.63;102876.16;4951443;28;9931;-66
2022/10/19 03:52:31;;;;;;;;;0.00;0.00;;;;;9.80;73.57;102871.66;4944670;28;9865;-66
2022/10/19 03:54:58;;;;;;;;;2.00;2.00;;;;;9.78;73.63;102875.47;4958041;28;10096;-65
2022/10/19 03:57:24;;;;;;;;;1.75;1.75;;;;;9.76;73.79;102859.44;4958575;28;10764;-68
2022/10/19 03:59:51;;;;;;;;;2.00;1.00;;;;;9.73;73.69;102864.28;4957726;28;10010;-68
2022/10/19 04:02:17;;;;;;;;;2.00;1.00;;;;;9.70;73.67;102862.72;4958477;28;10173;-66
2022/10/19 04:04:43;;;;;;;;;2.00;1.00;;;;;9.68;73.38;102867.34;4956426;28;10684;-66
2022/10/19 04:07:10;;;;;;;;;1.00;1.00;;;;;9.66;73.71;102867.50;4939839;28;10180;-67
2022/10/19 04:09:36;;;;;;;;;2.00;2.00;;;;;9.63;73.74;102862.41;4957894;28;10236;-66
2022/10/19 04:12:03;;;;;;;;;2.00;1.00;;;;;9.63;74.07;102866.94;4958248;28;10287;-68
2022/10/19 04:14:29;;;;;;;;;2.25;2.25;;;;;9.62;73.73;102868.78;4957989;28;10221;-69
2022/10/19 04:17:04;;;;;;;;;1.50;1.50;;;;;9.63;73.36;102875.00;4957931;28;10249;-66
2022/10/19 04:19:30;;;;;;;;;3.00;1.00;;;;;9.60;73.56;102877.97;4957069;28;10073;-68
2022/10/19 04:21:57;;;;;;;;;1.00;1.00;;;;;9.57;73.81;102873.72;4940270;29;10161;-67
2022/10/19 04:24:24;;;;;;;;;3.50;1.00;;;;;9.54;73.80;102879.38;4954594;28;10267;-68
2022/10/19 04:26:52;;;;;;;;;2.00;1.00;;;;;9.52;73.59;102869.72;4956846;28;10214;-67
2022/10/19 04:29:21;;;;;;;;;2.00;2.00;;;;;9.51;73.64;102876.94;4957571;28;10046;-68
2022/10/19 04:31:53;;;;;;;;;2.75;2.75;;;;;9.51;73.34;102870.72;4953173;28;10356;-66
2022/10/19 04:34:19;;;;;;;;;3.00;1.25;;;;;9.48;73.92;102874.56;4957920;28;10199;-67
2022/10/19 04:36:45;;;;;;;;;4.25;1.75;;;;;9.50;73.78;102869.03;4958200;28;10415;-69
2022/10/19 04:39:12;;;;;;;;;1.00;1.00;;;;;9.48;73.30;102873.69;4958233;28;10202;-65
2022/10/19 04:41:39;;;;;;;;;5.00;5.00;;;;;9.46;73.07;102868.44;4951408;28;10205;-67
2022/10/19 04:44:05;;;;;;;;;4.00;4.00;;;;;9.43;73.61;102871.41;4955722;28;10338;-64
2022/10/19 04:46:32;;;;;;;;;1.75;1.75;;;;;9.40;73.24;102869.88;4958024;28;10414;-68
2022/10/19 04:48:59;;;;;;;;;3.00;2.00;;;;;9.39;73.89;102868.13;4940593;28;10290;-68
2022/10/19 04:51:26;;;;;;;;;1.00;1.00;;;;;9.40;73.31;102861.81;4940220;28;10186;-68
2022/10/19 04:53:52;;;;;;;;;1.25;1.25;;;;;9.38;73.54;102858.38;4958116;28;10230;-65
2022/10/19 04:56:25;;;;;;;;;1.00;1.00;;;;;9.37;73.86;102872.81;4956010;28;10358;-66
2022/10/19 04:58:58;;;;;;;;;1.00;1.00;;;;;9.36;73.87;102871.13;4952429;28;10098;-65
2022/10/19 05:01:27;;;;;;;;;1.75;1.75;;;;;9.34;73.76;102865.03;4957297;28;10278;-66
2022/10/19 05:03:55;;;;;;;;;1.50;1.00;;;;;9.33;73.85;102863.31;4972116;23;10301;-66
2022/10/19 05:06:22;;;;;;;;;1.25;1.25;;;;;9.32;73.62;102858.94;4953547;28;10112;-65
2022/10/19 05:08:49;;;;;;;;;3.50;3.50;;;;;9.32;73.49;102860.78;4953214;28;10358;-66
2022/10/19 05:11:16;;;;;;;;;2.00;2.00;;;;;9.30;73.48;102860.91;4952632;28;10240;-66
2022/10/19 05:13:43;;;;;;;;;3.00;2.50;;;;;9.30;73.75;102860.06;4949275;28;10164;-65
2022/10/19 05:16:16;;;;;;;;;1.00;1.00;;;;;9.28;73.19;102857.50;4954574;28;10189;-64
2022/10/19 05:18:54;;;;;;;;;2.00;2.00;;;;;9.28;73.50;102851.28;4954875;28;10134;-66
2022/10/19 05:21:21;;;;;;;;;4.25;4.00;;;;;9.30;74.01;102852.00;4953210;28;10160;-66
2022/10/19 05:23:51;;;;;;;;;2.25;2.25;;;;;9.29;74.17;102855.69;4954811;28;10260;-65
2022/10/19 05:26:20;;;;;;;;;4.00;3.50;;;;;9.29;73.43;102858.38;4953190;28;10211;-64
2022/10/19 05:28:55;;;;;;;;;6.75;5.00;;;;;9.29;73.93;102859.22;4950726;28;10250;-66
2022/10/19 05:31:23;;;;;;;;;13.75;12.50;;;;;9.29;73.67;102853.84;4953709;28;11426;-66
2022/10/19 05:33:50;;;;;;;;;11.00;9.50;;;;;9.29;73.96;102861.91;4958508;28;10665;-65
2022/10/19 05:36:25;;;;;;;;;13.25;11.00;;;;;9.28;73.76;102857.50;4959580;28;10496;-65
2022/10/19 05:38:54;;;;;;;;;10.75;10.75;;;;;9.26;73.50;102855.94;4937317;28;10522;-65
2022/10/19 05:41:22;;;;;;;;;5.00;2.00;;;;;9.25;73.66;102863.16;4940620;28;10660;-66
2022/10/19 05:43:54;;;;;;;;;7.50;7.50;;;;;9.25;73.83;102852.41;4952702;28;10413;-66
2022/10/19 05:46:21;;;;;;;;;9.00;6.00;;;;;9.23;73.87;102859.75;4953681;28;10498;-67
2022/10/19 05:48:48;;;;;;;;;7.00;6.00;;;;;9.21;73.43;102852.81;4953013;28;11343;-67
2022/10/19 05:51:17;;;;;;;;;7.50;7.25;;;;;9.19;74.06;102855.63;4950646;28;10582;-66
2022/10/19 05:53:44;;;;;;;;;3.25;3.25;;;;;9.20;74.27;102854.66;4953866;28;10407;-66
2022/10/19 05:56:16;;;;;;;;;5.00;3.25;;;;;9.22;73.77;102849.13;4953977;28;10165;-65
2022/10/19 05:58:43;;;;;;;;;6.50;4.00;;;;;9.19;74.04;102855.63;4948597;28;10504;-67
2022/10/19 06:01:10;;;;;;;;;3.50;2.00;;;;;9.20;73.70;102856.50;4966715;28;10397;-66
2022/10/19 06:03:37;;;;;;;;;1.50;1.50;;;;;9.19;74.27;102861.00;4967873;28;10364;-65
2022/10/19 06:06:05;;;;;;;;;3.00;3.00;;;;;9.17;73.86;102860.28;4946512;28;10342;-67
2022/10/19 06:08:32;;;;;;;;;4.50;2.50;;;;;9.16;74.52;102855.91;4934570;29;10425;-67
2022/10/19 06:11:10;;;;;;;;;4.50;3.50;;;;;9.15;74.13;102857.75;4934314;29;11738;-67
2022/10/19 06:13:38;;;;;;;;;1.75;1.75;;;;;9.14;73.96;102858.72;4934506;29;10397;-65
2022/10/19 06:16:07;;;;;;;;;2.00;2.00;;;;;9.16;74.33;102858.59;4950449;28;10340;-67
2022/10/19 06:18:34;;;;;;;;;1.75;1.75;;;;;9.15;74.05;102856.88;4953388;28;10315;-66
2022/10/19 06:21:06;;;;;;;;;2.25;1.00;;;;;9.14;74.31;102855.19;4953259;28;10175;-67
2022/10/19 06:23:33;;;;;;;;;4.00;1.00;;;;;9.13;74.32;102851.66;4953344;28;10330;-67
2022/10/19 06:26:05;;;;;;;;;1.00;1.00;;;;;9.14;74.33;102860.56;4953219;28;10279;-66
2022/10/19 06:28:32;;;;;;;;;3.00;2.00;;;;;9.15;74.63;102867.63;4953414;28;10319;-65
2022/10/19 06:30:58;;;;;;;;;2.00;2.00;;;;;9.20;74.47;102869.94;4951939;28;10356;-66
2022/10/19 06:33:31;;;;;;;;;2.25;2.00;;;;;9.24;74.95;102858.78;4953029;28;10210;-66
2022/10/19 06:36:12;;;;;;;;;1.00;1.00;;;;;9.29;75.09;102858.38;4952965;28;10449;-67
2022/10/19 06:38:39;;;;;;;;;1.50;1.50;;;;;9.31;74.29;102857.22;4953203;28;10948;-67
2022/10/19 06:41:06;;;;;;;;;5.00;1.00;;;;;9.30;74.35;102858.22;4952754;28;10283;-66
2022/10/19 06:43:33;;;;;;;;;1.75;1.75;;;;;9.30;74.83;102855.53;4952789;28;10979;-67
2022/10/19 06:46:09;;;;;;;;;1.00;1.00;;;;;9.33;74.57;102852.56;4953121;28;10350;-66
2022/10/19 06:48:35;;;;;;;;;1.75;1.75;;;;;9.35;74.93;102860.50;4952244;28;11179;-67
2022/10/19 06:51:06;;;;;;;;;1.00;1.00;;;;;9.40;75.31;102851.06;4952547;28;10318;-67
2022/10/19 06:53:33;;;;;;;;;0.75;0.75;;;;;9.45;75.76;102856.00;4952845;28;10239;-66
2022/10/19 06:56:02;;;;;;;;;1.25;0.25;;;;;9.53;75.42;102844.56;4952714;28;10036;-67
2022/10/19 06:58:29;;;;;;;;;2.00;1.25;;;;;9.61;75.51;102852.78;4967796;28;10167;-66
2022/10/19 07:01:00;;;;;;;;;1.00;1.00;;;;;9.68;75.91;102851.22;4952693;28;10388;-65
2022/10/19 07:03:29;;;;;;;;;0.75;0.00;;;;;9.74;75.67;102849.84;4967371;28;10236;-66
2022/10/19 07:05:58;;;;;;;;;3.00;0.50;;;;;9.82;76.13;102840.06;4952315;28;10088;-66
2022/10/19 07:08:27;;;;;;;;;0.00;0.00;;;;;9.93;76.61;102833.72;4933548;29;10109;-66
2022/10/19 07:10:56;;;;;;;;;0.00;0.00;;;;;10.02;76.06;102835.56;4932149;28;9940;-67
2022/10/19 07:13:23;;;;;;;;;0.25;0.25;;;;;10.02;76.35;102843.63;4933414;28;10020;-65
2022/10/19 07:16:05;;;;;;;;;1.75;1.00;;;;;10.04;76.75;102838.09;4947886;28;9943;-66
2022/10/19 07:18:35;;;;;;;;;1.00;1.00;;;;;10.09;76.45;102841.22;4952736;28;10002;-66
2022/10/19 07:21:05;;;;;;;;;3.00;0.75;;;;;10.13;76.77;102848.03;4951155;28;10106;-68
2022/10/19 07:23:34;;;;;;;;;0.00;0.00;;;;;10.18;76.94;102848.44;4951233;28;10548;-66
2022/10/19 07:26:13;;;;;;;;;0.00;0.00;;;;;10.22;76.26;102841.78;4951930;28;9872;-65
2022/10/19 07:28:41;;;;;;;;;2.50;1.25;;;;;10.22;76.52;102839.09;4950336;28;9775;-67
2022/10/19 07:31:11;;;;;;;;;2.00;2.00;;;;;10.26;76.51;102835.16;4951955;28;10014;-66
2022/10/19 07:33:37;;;;;;;;;1.00;1.00;;;;;10.27;77.04;102839.53;4951989;28;9846;-66
2022/10/19 07:36:07;;;;;;;;;1.00;0.75;;;;;10.34;77.03;102850.59;4950801;28;9768;-66
2022/10/19 07:38:34;;;;;;;;;2.25;0.00;;;;;10.38;77.10;102842.06;4951830;28;9784;-67
2022/10/19 07:41:05;;;;;;;;;3.50;0.00;;;;;10.47;76.26;102847.59;4966399;28;9679;-66
2022/10/19 07:43:32;;;;;;;;;0.50;0.25;;;;;10.47;76.53;102851.13;4952078;28;9868;-66
2022/10/19 07:46:14;;;;;;;;;0.25;0.00;;;;;10.49;75.88;102856.34;4951517;28;10014;-68
2022/10/19 07:48:41;;;;;;;;;2.00;2.00;;;;;10.50;75.62;102850.84;4951858;28;9681;-67
2022/10/19 07:51:09;;;;;;;;;2.00;0.75;;;;;10.51;75.92;102852.53;4951774;28;9765;-65
2022/10/19 07:53:36;;;;;;;;;0.50;0.50;;;;;10.58;75.79;102860.91;4951830;28;9776;-66
2022/10/19 07:56:08;;;;;;;;;1.50;1.50;;;;;10.64;75.70;102853.06;4951588;28;9641;-66
2022/10/19 07:58:36;;;;;;;;;1.00;1.00;;;;;10.68;75.57;102852.78;4951847;28;9939;-66
2022/10/19 08:01:08;;;;;;;;;0.00;0.00;;;;;10.75;75.26;102860.16;4966348;28;9771;-66
2022/10/19 08:03:35;;;;;;;;;1.25;1.00;;;;;10.81;75.08;102864.09;4951212;29;9872;-66
2022/10/19 08:06:23;;;;;;;;;4.00;0.75;;;;;10.84;74.47;102861.94;4951355;28;9774;-65
2022/10/19 08:08:50;;;;;;;;;0.75;0.75;;;;;10.89;74.46;102864.19;4951894;28;9671;-67
2022/10/19 08:11:19;;;;;;;;;1.00;1.00;;;;;10.91;74.73;102864.06;4951833;28;9614;-67
2022/10/19 08:13:46;;;;;;;;;1.50;1.00;;;;;10.89;74.38;102865.03;4951725;28;9620;-67
2022/10/19 08:16:35;;;;;;;;;1.00;0.00;;;;;10.97;74.47;102858.09;4951621;28;9533;-66
2022/10/19 08:19:09;;;;;;;;;0.00;0.00;;;;;11.03;74.40;102858.34;4951825;28;9554;-67
2022/10/19 08:21:39;;;;;;;;;1.25;0.00;;;;;11.10;74.36;102854.06;4951749;28;9457;-67
2022/10/19 08:24:06;;;;;;;;;0.50;0.50;;;;;11.13;73.91;102859.16;4951103;28;9626;-67
2022/10/19 08:26:35;;;;;;;;;1.00;1.00;;;;;11.15;73.80;102853.63;4951302;28;9620;-66
2022/10/19 08:29:04;;;;;;;;;1.00;1.00;;;;;11.16;73.44;102858.00;4951763;28;9753;-66
2022/10/19 08:31:31;;;;;;;;;1.00;1.00;;;;;11.14;73.34;102855.47;4951475;28;9562;-65
2022/10/19 08:33:58;;;;;;;;;1.00;0.75;;;;;11.18;73.44;102853.34;4950350;28;9529;-65
2022/10/19 08:36:25;;;;;;;;;1.00;1.00;;;;;11.24;73.08;102847.31;4951180;28;9569;-65
2022/10/19 08:38:51;;;;;;;;;0.25;0.25;;;;;11.30;72.67;102848.56;4951812;28;9547;-65
2022/10/19 08:41:24;;;;;;;;;0.00;0.00;;;;;11.35;73.02;102846.28;4955015;28;9658;-66
2022/10/19 08:44:06;;;;;;;;;1.00;1.00;;;;;11.38;72.67;102852.25;4955275;28;9531;-66
2022/10/19 08:46:47;;;;;;;;;2.00;1.00;;;;;11.42;72.90;102855.44;4936070;29;9381;-65
2022/10/19 08:49:19;;;;;;;;;0.00;0.00;;;;;11.39;72.97;102847.69;4936245;29;9485;-65
2022/10/19 08:51:50;;;;;;;;;0.00;0.00;;;;;11.44;72.37;102836.44;4935773;29;9349;-65
2022/10/19 08:54:17;;;;;;;;;1.00;1.00;;;;;11.48;72.23;102845.94;4938320;28;9530;-66
2022/10/19 08:56:55;;;;;;;;;1.00;1.00;;;;;11.47;72.24;102844.25;4954841;28;9544;-65
2022/10/19 08:59:50;;;;;;;;;1.00;0.75;;;;;11.41;71.95;102834.88;4953579;28;9480;-65
2022/10/19 09:02:28;;;;;;;;;0.00;0.00;;;;;11.36;71.67;102827.25;4955065;28;9465;-66
2022/10/19 09:05:04;;;;;;;;;1.25;1.25;;;;;11.38;71.62;102822.56;4954581;28;9491;-66
2022/10/19 09:07:44;;;;;;;;;1.00;1.00;;;;;11.23;71.47;102821.38;4954713;28;9455;-66
2022/10/19 09:10:14;;;;;;;;;2.00;1.00;;;;;11.30;70.95;102818.91;4954573;28;9592;-66
2022/10/19 09:12:54;;;;;;;;;1.00;1.00;;;;;11.41;71.04;102807.91;4953424;28;9384;-66
2022/10/19 09:15:45;;;;;;;;;0.00;0.00;;;;;11.51;70.31;102807.88;4954182;28;10066;-65
2022/10/19 09:18:24;;;;;;;;;1.00;0.00;;;;;11.51;70.78;102813.28;4954626;28;9310;-66
2022/10/19 09:20:59;;;;;;;;;2.50;1.50;;;;;11.55;70.15;102806.56;4952993;28;9414;-67
2022/10/19 09:23:34;;;;;;;;;1.00;1.00;;;;;11.65;70.21;102799.25;4954393;28;10263;-66
2022/10/19 09:26:01;;;;;;;;;2.50;1.00;;;;;11.72;69.85;102803.03;4953880;28;10239;-66
2022/10/19 09:28:43;;;;;;;;;1.25;1.00;;;;;11.76;69.59;102801.72;4954216;28;9554;-66
2022/10/19 09:31:18;;;;;;;;;1.00;0.00;;;;;11.79;70.06;102796.03;4969172;28;9548;-66
2022/10/19 09:33:52;;;;;;;;;0.67;0.67;;;;;11.76;70.19;102790.94;4954427;28;9600;-65
2022/10/19 09:36:18;;;;;;;;;2.00;1.00;;;;;11.75;69.60;102781.16;4968982;28;9348;-67
2022/10/19 09:38:53;;;;;;;;;2.33;1.00;;;;;11.79;69.79;102774.44;4954300;28;9566;-66
2022/10/19 09:41:22;;;;;;;;;1.00;1.00;;;;;11.80;69.49;102778.81;4968734;28;9438;-66
2022/10/19 09:43:52;;;;;;;;;1.00;1.00;;;;;11.79;69.02;102785.22;4954038;28;9503;-65
2022/10/19 09:46:54;;;;;;;;;1.00;1.00;;;;;11.81;68.80;102785.06;4953674;28;9421;-65
2022/10/19 09:49:44;;;;;;;;;0.33;0.33;;;;;11.83;68.49;102781.25;4953051;28;9411;-66
2022/10/19 09:52:28;;;;;;;;;2.00;1.00;;;;;11.88;69.03;102789.72;4968211;28;9336;-67
2022/10/19 09:55:01;;;;;;;;;1.00;1.00;;;;;11.88;69.39;102781.63;4953448;28;9485;-66
2022/10/19 09:57:29;;;;;;;;;0.00;0.00;;;;;11.99;68.37;102785.06;4953617;28;9566;-67
2022/10/19 09:59:56;;;;;;;;;1.00;1.00;;;;;12.01;68.22;102783.91;4953137;28;9682;-66
2022/10/19 10:02:31;;;;;;;;;0.00;0.00;;;;;12.00;68.66;102784.09;4953835;28;10305;-66
2022/10/19 10:05:13;;;;;;;;;0.00;0.00;;;;;12.08;68.35;102778.75;4952183;28;9560;-66
2022/10/19 10:07:40;;;;;;;;;0.00;0.00;;;;;12.10;68.35;102791.06;4953341;28;9434;-65
2022/10/19 10:10:18;;;;;;;;;1.67;1.00;;;;;12.10;67.89;102795.63;4953185;28;9387;-66
2022/10/19 10:12:45;;;;;;;;;0.00;0.00;;;;;11.98;67.11;102784.22;4953673;28;9451;-65
2022/10/19 10:15:20;;;;;;;;;0.00;0.00;;;;;11.98;67.02;102792.31;4968207;28;9309;-66
2022/10/19 10:17:48;;;;;;;;;0.33;0.33;;;;;12.02;66.58;102792.88;4952408;28;9332;-66
2022/10/19 10:20:26;;;;;;;;;0.00;0.00;;;;;11.96;65.95;102794.34;4951372;28;9320;-66
2022/10/19 10:22:57;;;;;;;;;0.00;0.00;;;;;12.05;65.98;102797.97;4950751;28;9517;-66
2022/10/19 10:25:26;;;;;;;;;0.00;0.00;;;;;12.08;65.83;102789.56;4967172;28;9498;-67
2022/10/19 10:27:59;;;;;;;;;0.50;0.50;;;;;12.08;66.49;102785.00;4967340;28;9471;-66
2022/10/19 10:30:31;;;;;;;;;1.00;0.00;;;;;12.11;66.52;102789.22;4949792;28;9583;-66
2022/10/19 10:32:58;;;;;;;;;0.33;0.00;;;;;12.03;66.22;102781.94;4952737;28;9376;-66
2022/10/19 10:35:48;;;;;;;;;0.00;0.00;;;;;12.02;66.43;102777.50;4951541;28;9469;-66
2022/10/19 10:38:25;;;;;;;;;2.00;1.00;;;;;12.07;66.40;102772.50;4951669;28;10167;-67
2022/10/19 10:40:55;;;;;;;;;1.00;1.00;;;;;12.04;66.33;102764.72;4949949;28;9253;-67
2022/10/19 10:43:29;;;;;;;;;1.75;0.00;;;;;12.20;68.91;102765.84;4953717;28;9352;-69
2022/10/19 10:46:02;;;;;;;;;2.00;0.50;;;;;12.25;67.02;102758.97;4952853;28;9376;-66
2022/10/19 10:49:00;;;;;;;;;0.00;0.00;;;;;12.17;66.64;102750.81;4953244;28;9476;-66
2022/10/19 10:51:36;;;;;;;;;1.00;1.00;;;;;12.22;66.18;102753.03;4952277;28;9493;-66
2022/10/19 10:54:25;;;;;;;;;0.00;0.00;;;;;12.18;66.67;102744.41;4951462;28;9435;-65
2022/10/19 10:56:58;;;;;;;;;5.00;1.33;;;;;12.07;66.13;102736.53;4933568;29;9414;-66
2022/10/19 10:59:43;;;;;;;;;0.00;0.00;;;;;12.06;66.01;102727.59;4933260;28;9416;-65
2022/10/19 11:02:25;;;;;;;;;0.00;0.00;;;;;12.15;65.55;102723.09;4932594;29;9367;-66
2022/10/19 11:05:18;;;;;;;;;1.00;1.00;;;;;12.25;65.52;102731.13;4977389;23;9464;-69
2022/10/19 11:07:49;;;;;;;;;0.00;0.00;;;;;12.26;65.66;102713.91;4959088;28;9494;-68
2022/10/19 11:10:19;;;;;;;;;2.00;0.00;;;;;12.25;65.23;102712.22;4951654;28;9328;-67
2022/10/19 11:12:57;;;;;;;;;0.00;0.00;;;;;12.34;64.94;102709.41;4952753;28;9510;-66
2022/10/19 11:15:47;;;;;;;;;0.00;0.00;;;;;12.31;64.59;102704.31;4962867;28;9336;-69
2022/10/19 11:18:21;;;;;;;;;0.00;0.00;;;;;12.34;64.46;102704.00;4971961;28;9380;-66
2022/10/19 11:21:14;;;;;;;;;0.67;0.67;;;;;12.28;64.74;102693.84;4971684;28;9332;-66
2022/10/19 11:24:04;;;;;;;;;0.00;0.00;;;;;12.25;65.11;102694.16;4971810;28;10088;-68
2022/10/19 11:26:46;;;;;;;;;1.00;1.00;;;;;12.18;65.74;102682.31;4971162;28;10350;-68
2022/10/19 11:29:35;;;;;;;;;1.00;1.00;;;;;12.28;65.88;102664.16;4954332;28;9306;-65
2022/10/19 11:32:08;;;;;;;;;1.00;1.00;;;;;12.44;64.59;102666.09;4952553;28;9325;-67
2022/10/19 11:35:15;;;;;;;;;2.00;1.00;;;;;12.38;64.99;102645.94;4953967;28;9347;-67
2022/10/19 11:37:47;;;;;;;;;1.00;1.00;;;;;12.56;63.56;102650.44;4967166;28;9339;-65
2022/10/19 11:41:04;;;;;;;;;0.00;0.00;;;;;12.60;63.35;102644.53;4952282;28;9431;-68
2022/10/19 11:44:04;;;;;;;;;1.67;1.67;;;;;12.54;63.90;102638.94;4951140;28;9259;-68
2022/10/19 11:46:47;;;;;;;;;1.33;1.00;;;;;12.57;64.13;102641.31;4970935;28;9354;-68
2022/10/19 11:49:32;;;;;;;;;3.00;1.00;;;;;12.63;64.25;102627.13;4971234;28;9399;-68
2022/10/19 11:52:23;;;;;;;;;1.33;1.00;;;;;12.72;63.36;102619.91;4986076;28;9220;-67
2022/10/19 11:54:58;;;;;;;;;0.00;0.00;;;;;12.78;63.01;102630.06;4969842;28;9260;-66
2022/10/19 11:57:30;;;;;;;;;1.00;1.00;;;;;12.81;62.71;102608.97;4971477;28;9247;-68